Fifty Lakes, Minnesota
Current Conditions -  °F | °C
As of 6:14 AM on Friday 31 Oct 2014 (Local Time) from KPWC Reporting Station
Clear Clear  
Wind Chill: 16°   Ceiling: Unl
Heat Index: 25°   Visibility: 10mi
Dew Point: 18°   Wind: 8mph
Humidity: 74%   Direction: 20°NNE
Pressure: 30.56"   Gusts: NA
Location:  46.74°N, 94.09°W
Report Text: KPWC 311114Z AUTO 02007KT 10SM CLR M04/M08 A3056 RMK AO2
Loading
Personal Weather Stations






























Interactive Weather Map
Tropical Storm Tracking
New forecast layout! Learn more

10-Day Weather Forecast

Advertisements
Track Severe Weather on mobile